Time,TemperatureF,DewpointF,PressureIn,WindDirection,WindDirectionDegrees,WindSpeedMPH,WindSpeedGustMPH,Humidity,HourlyPrecipIn,Conditions,Clouds,dailyrainin,SoftwareType,DateUTC
2013-10-16 00:00:00,46.0,41.6,29.81,SW,225,3.0,8.0,88,0.00,,-RA,0.00,VWS V14.01,2013-10-16 05:00:00,
2013-10-16 00:07:00,44.9,42.0,29.81,SW,224,3.0,6.0,88,0.00,,,0.00,weatherlink.com 1.10,2013-10-16 05:07:00,
2013-10-16 00:22:00,44.3,41.0,29.80,SW,221,3.0,5.0,89,0.00,,,0.00,weatherlink.com 1.10,2013-10-16 05:22:00,
2013-10-16 00:30:00,44.0,41.2,29.81,SW,225,2.0,6.0,89,0.00,,-RA,0.00,VWS V14.01,2013-10-16 05:30:00,
2013-10-16 00:37:00,43.7,41.0,29.80,SW,219,2.0,4.0,90,0.00,,,0.00,weatherlink.com 1.10,2013-10-16 05:37:00,
2013-10-16 00:52:00,43.5,41.0,29.81,SW,234,2.0,6.0,90,0.00,,,0.00,weatherlink.com 1.10,2013-10-16 05:52:00,
2013-10-16 01:00:00,44.0,41.2,29.81,SW,225,2.0,7.0,91,0.00,,-RA,0.00,VWS V14.01,2013-10-16 06:00:00,
2013-10-16 01:07:00,43.9,42.0,29.81,SW,227,4.0,7.0,91,0.00,,,0.00,weatherlink.com 1.10,2013-10-16 06:07:00,
2013-10-16 01:22:00,44.7,42.0,29.81,SSW,210,2.0,8.0,90,0.00,,,0.00,weatherlink.com 1.10,2013-10-16 06:22:00,
2013-10-16 01:30:00,45.0,42.2,29.81,SW,225,4.0,9.0,90,0.00,,-RA,0.00,VWS V14.01,2013-10-16 06:30:00,
2013-10-16 01:37:00,45.0,42.0,29.81,SW,230,4.0,8.0,89,0.00,,,0.00,weatherlink.com 1.10,2013-10-16 06:37:00,
2013-10-16 01:52:00,45.4,42.0,29.82,SW,234,2.0,9.0,89,0.00,,,0.00,weatherlink.com 1.10,2013-10-16 06:52:00,
2013-10-16 02:00:00,46.0,42.3,29.81,SW,225,4.0,12.0,90,0.00,,-RA,0.00,VWS V14.01,2013-10-16 07:00:00,
2013-10-16 02:07:00,45.4,42.0,29.81,SW,223,4.0,6.0,89,0.00,,,0.00,weatherlink.com 1.10,2013-10-16 07:07:00,
2013-10-16 02:23:00,45.7,43.0,29.81,SW,229,2.0,6.0,89,0.00,,,0.00,weatherlink.com 1.10,2013-10-16 07:23:00,
2013-10-16 02:30:00,47.0,43.0,29.81,SW,225,3.0,9.0,89,0.00,,-RA,0.00,VWS V14.01,2013-10-16 07:30:00,
2013-10-16 02:38:00,46.1,43.0,29.81,SW,223,5.0,8.0,88,0.00,,,0.00,weatherlink.com 1.10,2013-10-16 07:38:00,
2013-10-16 02:53:00,46.3,43.0,29.81,SSW,211,4.0,7.0,88,0.00,,,0.00,weatherlink.com 1.10,2013-10-16 07:53:00,
2013-10-16 03:00:00,47.0,43.0,29.80,SW,225,4.0,10.0,88,0.00,,-RA,0.00,VWS V14.01,2013-10-16 08:00:00,
2013-10-16 03:08:00,46.6,43.0,29.80,SW,217,5.0,9.0,88,0.00,,,0.00,weatherlink.com 1.10,2013-10-16 08:08:00,
2013-10-16 03:23:00,47.0,43.0,29.80,SW,234,2.0,8.0,87,0.00,,,0.00,weatherlink.com 1.10,2013-10-16 08:23:00,
2013-10-16 03:30:00,48.0,43.5,29.80,SW,225,4.0,10.0,88,0.00,,-RA,0.00,VWS V14.01,2013-10-16 08:30:00,
2013-10-16 03:38:00,47.3,44.0,29.79,SW,224,3.0,10.0,87,0.00,,,0.00,weatherlink.com 1.10,2013-10-16 08:38:00,
2013-10-16 03:53:00,47.5,44.0,29.79,SW,223,8.0,9.0,87,0.00,,,0.00,weatherlink.com 1.10,2013-10-16 08:53:00,
2013-10-16 04:00:00,48.0,44.0,29.79,SW,225,5.0,12.0,87,0.00,,-RA,0.00,VWS V14.01,2013-10-16 09:00:00,
2013-10-16 04:08:00,47.8,44.0,29.79,SW,219,4.0,10.0,87,0.00,,,0.00,weatherlink.com 1.10,2013-10-16 09:08:00,
2013-10-16 04:23:00,48.3,44.0,29.80,South,191,1.0,10.0,86,0.00,,,0.00,weatherlink.com 1.10,2013-10-16 09:23:00,
2013-10-16 04:30:00,49.0,44.3,29.79,WSW,248,4.0,14.0,86,0.00,,-RA,0.00,VWS V14.01,2013-10-16 09:30:00,
2013-10-16 04:38:00,48.8,44.0,29.79,WSW,237,1.0,13.0,84,0.00,,,0.00,weatherlink.com 1.10,2013-10-16 09:38:00,
2013-10-16 04:53:00,48.8,44.0,29.79,West,272,4.0,13.0,84,0.00,,,0.00,weatherlink.com 1.10,2013-10-16 09:53:00,
2013-10-16 05:00:00,49.0,44.2,29.80,West,270,5.0,14.0,85,0.00,,-RA,0.00,VWS V14.01,2013-10-16 10:00:00,
2013-10-16 05:08:00,48.8,44.0,29.80,WSW,246,5.0,10.0,84,0.00,,,0.00,weatherlink.com 1.10,2013-10-16 10:08:00,
2013-10-16 05:23:00,48.7,44.0,29.80,SW,214,2.0,8.0,84,0.00,,,0.00,weatherlink.com 1.10,2013-10-16 10:23:00,
2013-10-16 05:30:00,49.0,44.1,29.80,WSW,248,4.0,11.0,85,0.00,,-RA,0.00,VWS V14.01,2013-10-16 10:30:00,
2013-10-16 05:38:00,48.7,44.0,29.80,SW,236,2.0,13.0,84,0.00,,,0.00,weatherlink.com 1.10,2013-10-16 10:38:00,
2013-10-16 05:53:00,48.7,44.0,29.80,NW,306,5.0,13.0,84,0.00,,,0.00,weatherlink.com 1.10,2013-10-16 10:53:00,
2013-10-16 06:00:00,49.0,44.1,29.80,WSW,248,5.0,14.0,85,0.00,,-RA,0.00,VWS V14.01,2013-10-16 11:00:00,
2013-10-16 06:08:00,48.7,44.0,29.80,SW,230,3.0,11.0,85,0.00,,,0.00,weatherlink.com 1.10,2013-10-16 11:08:00,
2013-10-16 06:23:00,48.6,44.0,29.80,West,273,3.0,14.0,85,0.00,,,0.00,weatherlink.com 1.10,2013-10-16 11:23:00,
2013-10-16 06:30:00,49.0,44.3,29.80,WSW,248,5.0,14.0,85,0.00,,-RA,0.00,VWS V14.01,2013-10-16 11:30:00,
2013-10-16 06:38:00,48.6,44.0,29.80,West,268,6.0,13.0,85,0.00,,,0.00,weatherlink.com 1.10,2013-10-16 11:38:00,
2013-10-16 06:53:00,48.5,44.0,29.80,WSW,241,4.0,11.0,85,0.00,,,0.00,weatherlink.com 1.10,2013-10-16 11:53:00,
2013-10-16 07:00:00,49.0,44.2,29.80,West,270,4.0,12.0,85,0.00,,-RA,0.00,VWS V14.01,2013-10-16 12:00:00,
2013-10-16 07:08:00,48.5,44.0,29.80,SSW,205,3.0,13.0,85,0.00,,,0.00,weatherlink.com 1.10,2013-10-16 12:08:00,
2013-10-16 07:23:00,48.4,44.0,29.81,SW,214,6.0,10.0,86,0.00,,,0.00,weatherlink.com 1.10,2013-10-16 12:23:00,
2013-10-16 07:30:00,49.0,44.4,29.81,West,270,5.0,13.0,86,0.00,,-RA,0.00,VWS V14.01,2013-10-16 12:30:00,
2013-10-16 07:38:00,48.4,44.0,29.81,West,263,5.0,12.0,86,0.00,,,0.00,weatherlink.com 1.10,2013-10-16 12:38:00,
2013-10-16 07:53:00,48.4,44.0,29.81,West,275,6.0,14.0,86,0.00,,,0.00,weatherlink.com 1.10,2013-10-16 12:53:00,
2013-10-16 08:00:00,49.0,44.4,29.82,West,270,5.0,14.0,86,0.00,,-RA,0.00,VWS V14.01,2013-10-16 13:00:00,
2013-10-16 08:08:00,48.4,44.0,29.82,West,265,4.0,9.0,86,0.00,,,0.00,weatherlink.com 1.10,2013-10-16 13:08:00,
2013-10-16 08:23:00,48.3,44.0,29.82,WSW,250,8.0,13.0,86,0.00,,,0.00,weatherlink.com 1.10,2013-10-16 13:23:00,
2013-10-16 08:30:00,49.0,44.6,29.82,West,270,5.0,13.0,86,0.00,,-RA,0.00,VWS V14.01,2013-10-16 13:30:00,
2013-10-16 08:38:00,48.3,45.0,29.82,WSW,248,2.0,13.0,87,0.00,,,0.00,weatherlink.com 1.10,2013-10-16 13:38:00,
2013-10-16 08:53:00,48.3,45.0,29.83,West,275,4.0,11.0,88,0.00,,,0.00,weatherlink.com 1.10,2013-10-16 13:53:00,
2013-10-16 09:00:00,49.0,44.9,29.83,West,270,5.0,13.0,87,0.00,,-RA,0.00,VWS V14.01,2013-10-16 14:00:00,
2013-10-16 09:08:00,48.4,45.0,29.83,West,268,8.0,15.0,88,0.00,,,0.00,weatherlink.com 1.10,2013-10-16 14:08:00,
2013-10-16 09:23:00,48.6,45.0,29.84,SW,231,6.0,14.0,88,0.00,,,0.00,weatherlink.com 1.10,2013-10-16 14:23:00,
2013-10-16 09:30:00,50.0,45.2,29.84,West,270,6.0,16.0,87,0.00,,-RA,0.00,VWS V14.01,2013-10-16 14:30:00,
2013-10-16 09:38:00,48.4,46.0,29.84,SW,226,5.0,15.0,90,0.00,,,0.00,weatherlink.com 1.10,2013-10-16 14:38:00,
2013-10-16 09:53:00,48.2,46.0,29.85,SSW,196,1.0,11.0,91,0.00,,,0.00,weatherlink.com 1.10,2013-10-16 14:53:00,
2013-10-16 10:00:00,50.0,46.0,29.85,West,270,5.0,15.0,91,0.00,,-RA,0.00,VWS V14.01,2013-10-16 15:00:00,
2013-10-16 10:08:00,48.1,46.0,29.85,West,265,6.0,11.0,92,0.00,,,0.00,weatherlink.com 1.10,2013-10-16 15:08:00,
2013-10-16 10:23:00,48.2,46.0,29.85,WNW,283,11.0,13.0,93,0.00,,,0.00,weatherlink.com 1.10,2013-10-16 15:23:00,
2013-10-16 10:30:00,50.0,46.5,29.85,West,270,6.0,13.0,92,0.00,,-RA,0.00,VWS V14.01,2013-10-16 15:30:00,
2013-10-16 10:38:00,48.7,47.0,29.85,West,277,7.0,11.0,94,0.00,,,0.00,weatherlink.com 1.10,2013-10-16 15:38:00,
2013-10-16 10:53:00,48.6,47.0,29.85,WSW,245,4.0,11.0,93,0.00,,,0.00,weatherlink.com 1.10,2013-10-16 15:53:00,
2013-10-16 11:00:00,51.0,46.9,29.85,West,270,5.0,11.0,91,0.00,,-RA,0.00,VWS V14.01,2013-10-16 16:00:00,
2013-10-16 11:08:00,48.9,47.0,29.85,West,261,5.0,14.0,93,0.00,,,0.00,weatherlink.com 1.10,2013-10-16 16:08:00,
2013-10-16 11:23:00,49.6,47.0,29.85,WSW,256,6.0,12.0,92,0.00,,,0.00,weatherlink.com 1.10,2013-10-16 16:23:00,
2013-10-16 11:30:00,52.0,46.9,29.86,West,270,5.0,14.0,89,0.00,,-RA,0.00,VWS V14.01,2013-10-16 16:30:00,
2013-10-16 11:38:00,49.6,47.0,29.86,West,261,5.0,13.0,90,0.00,,,0.00,weatherlink.com 1.10,2013-10-16 16:38:00,
2013-10-16 11:53:00,49.8,47.0,29.86,West,275,4.0,14.0,89,0.00,,,0.00,weatherlink.com 1.10,2013-10-16 16:53:00,
2013-10-16 12:00:00,52.0,46.6,29.86,West,270,6.0,14.0,87,0.00,,-RA,0.00,VWS V14.01,2013-10-16 17:00:00,
2013-10-16 12:08:00,50.2,47.0,29.86,West,276,6.0,11.0,87,0.00,,,0.00,weatherlink.com 1.10,2013-10-16 17:08:00,
2013-10-16 12:30:00,52.0,46.8,29.86,West,270,5.0,14.0,86,0.00,,-RA,0.00,VWS V14.01,2013-10-16 17:30:00,
2013-10-16 12:38:00,50.9,47.0,29.86,SW,236,4.0,15.0,85,0.00,,,0.00,weatherlink.com 1.10,2013-10-16 17:38:00,
2013-10-16 12:53:00,51.0,47.0,29.86,WNW,286,2.0,14.0,85,0.00,,,0.00,weatherlink.com 1.10,2013-10-16 17:53:00,
2013-10-16 13:00:00,53.0,46.6,29.85,West,270,6.0,16.0,83,0.00,,-RA,0.00,VWS V14.01,2013-10-16 18:00:00,
2013-10-16 13:08:00,50.7,46.0,29.85,SW,215,2.0,13.0,84,0.00,,,0.00,weatherlink.com 1.10,2013-10-16 18:08:00,
2013-10-16 13:23:00,50.5,46.0,29.86,WSW,244,5.0,12.0,85,0.00,,,0.00,weatherlink.com 1.10,2013-10-16 18:23:00,
2013-10-16 13:30:00,52.0,46.1,29.85,West,270,6.0,15.0,84,0.00,,-RA,0.00,VWS V14.01,2013-10-16 18:30:00,
2013-10-16 13:38:00,50.5,46.0,29.85,West,266,10.0,14.0,85,0.00,,,0.00,weatherlink.com 1.10,2013-10-16 18:38:00,
2013-10-16 13:53:00,50.3,46.0,29.85,West,265,6.0,17.0,85,0.00,,,0.00,weatherlink.com 1.10,2013-10-16 18:53:00,
2013-10-16 14:00:00,52.0,45.8,29.85,West,270,7.0,17.0,84,0.00,,-RA,0.00,VWS V14.01,2013-10-16 19:00:00,
2013-10-16 14:09:00,50.6,46.0,29.85,West,259,8.0,15.0,84,0.00,,,0.00,weatherlink.com 1.10,2013-10-16 19:09:00,
2013-10-16 14:23:00,50.4,46.0,29.85,West,264,5.0,14.0,84,0.00,,,0.00,weatherlink.com 1.10,2013-10-16 19:23:00,
2013-10-16 14:30:00,52.0,45.8,29.85,West,270,7.0,16.0,84,0.00,,-RA,0.00,VWS V14.01,2013-10-16 19:30:00,
2013-10-16 14:39:00,50.5,46.0,29.85,West,268,5.0,14.0,84,0.00,,,0.00,weatherlink.com 1.10,2013-10-16 19:39:00,
2013-10-16 14:54:00,50.6,46.0,29.85,WNW,293,7.0,15.0,84,0.00,,,0.00,weatherlink.com 1.10,2013-10-16 19:54:00,
2013-10-16 15:00:00,52.0,46.0,29.85,West,270,7.0,16.0,83,0.00,,-RA,0.00,VWS V14.01,2013-10-16 20:00:00,
2013-10-16 15:09:00,50.7,46.0,29.85,WNW,284,4.0,15.0,84,0.00,,,0.00,weatherlink.com 1.10,2013-10-16 20:09:00,
2013-10-16 15:24:00,50.9,46.0,29.85,WSW,256,9.0,15.0,84,0.00,,,0.00,weatherlink.com 1.10,2013-10-16 20:24:00,
2013-10-16 15:30:00,52.0,45.9,29.85,West,270,7.0,14.0,83,0.00,,-RA,0.00,VWS V14.01,2013-10-16 20:30:00,
2013-10-16 15:39:00,50.9,46.0,29.85,WNW,288,5.0,14.0,83,0.00,,,0.00,weatherlink.com 1.10,2013-10-16 20:39:00,
2013-10-16 15:54:00,50.7,46.0,29.85,WSW,254,3.0,14.0,83,0.00,,,0.00,weatherlink.com 1.10,2013-10-16 20:54:00,
2013-10-16 16:09:00,50.7,46.0,29.85,West,261,4.0,14.0,84,0.00,,,0.00,weatherlink.com 1.10,2013-10-16 21:09:00,
2013-10-16 16:24:00,50.6,46.0,29.85,West,261,4.0,11.0,84,0.00,,,0.00,weatherlink.com 1.10,2013-10-16 21:24:00,
2013-10-16 16:39:00,50.4,46.0,29.86,West,267,7.0,10.0,85,0.00,,,0.00,weatherlink.com 1.10,2013-10-16 21:39:00,
2013-10-16 16:54:00,50.2,46.0,29.86,WSW,244,3.0,10.0,85,0.00,,,0.00,weatherlink.com 1.10,2013-10-16 21:54:00,
2013-10-16 17:09:00,50.1,46.0,29.86,WNW,286,2.0,13.0,86,0.00,,,0.00,weatherlink.com 1.10,2013-10-16 22:09:00,
2013-10-16 17:24:00,50.0,46.0,29.86,West,272,7.0,10.0,86,0.00,,,0.00,weatherlink.com 1.10,2013-10-16 22:24:00,
2013-10-16 17:39:00,49.5,46.0,29.87,West,269,6.0,8.0,89,0.00,,,0.00,weatherlink.com 1.10,2013-10-16 22:39:00,
2013-10-16 17:54:00,49.0,46.0,29.87,WNW,292,3.0,11.0,90,0.00,,,0.00,weatherlink.com 1.10,2013-10-16 22:54:00,
2013-10-16 18:09:00,49.1,46.0,29.87,WNW,296,6.0,9.0,90,0.00,,,0.00,weatherlink.com 1.10,2013-10-16 23:09:00,
2013-10-16 18:24:00,49.1,46.0,29.87,West,260,3.0,9.0,90,0.00,,,0.00,weatherlink.com 1.10,2013-10-16 23:24:00,
2013-10-16 18:39:00,49.2,46.0,29.87,WNW,282,3.0,7.0,89,0.00,,,0.00,weatherlink.com 1.10,2013-10-16 23:39:00,
2013-10-16 18:54:00,49.0,46.0,29.88,West,281,5.0,7.0,90,0.00,,,0.00,weatherlink.com 1.10,2013-10-16 23:54:00,
2013-10-16 19:09:00,48.7,47.0,29.88,SSW,209,1.0,8.0,92,0.00,,,0.00,weatherlink.com 1.10,2013-10-17 00:09:00,
2013-10-16 19:24:00,48.5,46.0,29.89,SW,229,2.0,7.0,92,0.00,,,0.00,weatherlink.com 1.10,2013-10-17 00:24:00,
2013-10-16 19:39:00,48.4,46.0,29.89,WSW,254,4.0,8.0,92,0.00,,,0.00,weatherlink.com 1.10,2013-10-17 00:39:00,
2013-10-16 19:54:00,48.2,46.0,29.89,WSW,252,0.0,9.0,93,0.00,,,0.00,weatherlink.com 1.10,2013-10-17 00:54:00,
2013-10-16 20:09:00,48.2,46.0,29.90,West,261,2.0,6.0,93,0.00,,,0.00,weatherlink.com 1.10,2013-10-17 01:09:00,
2013-10-16 20:24:00,48.1,47.0,29.90,WSW,256,0.0,6.0,94,0.00,,,0.00,weatherlink.com 1.10,2013-10-17 01:24:00,
2013-10-16 20:39:00,48.0,46.0,29.90,SW,227,1.0,5.0,94,0.00,,,0.00,weatherlink.com 1.10,2013-10-17 01:39:00,
2013-10-16 20:54:00,47.9,47.0,29.90,West,281,4.0,5.0,95,0.00,,,0.00,weatherlink.com 1.10,2013-10-17 01:54:00,
2013-10-16 21:09:00,47.9,47.0,29.90,West,264,0.0,4.0,95,0.00,,,0.00,weatherlink.com 1.10,2013-10-17 02:09:00,
2013-10-16 21:24:00,48.0,47.0,29.91,West,279,5.0,6.0,95,0.00,,,0.00,weatherlink.com 1.10,2013-10-17 02:24:00,
2013-10-16 21:39:00,48.0,46.0,29.91,West,268,1.0,6.0,94,0.00,,,0.00,weatherlink.com 1.10,2013-10-17 02:39:00,
2013-10-16 21:54:00,48.0,46.0,29.91,West,268,2.0,5.0,94,0.00,,,0.00,weatherlink.com 1.10,2013-10-17 02:54:00,
2013-10-16 22:09:00,48.0,46.0,29.91,WNW,287,4.0,5.0,94,0.00,,,0.00,weatherlink.com 1.10,2013-10-17 03:09:00,
2013-10-16 22:24:00,48.0,46.0,29.91,West,268,2.0,6.0,94,0.00,,,0.00,weatherlink.com 1.10,2013-10-17 03:24:00,
2013-10-16 22:39:00,48.0,46.0,29.91,WNW,286,4.0,4.0,94,0.00,,,0.00,weatherlink.com 1.10,2013-10-17 03:39:00,
2013-10-16 22:54:00,47.9,46.0,29.91,SSW,211,0.0,5.0,94,0.00,,,0.00,weatherlink.com 1.10,2013-10-17 03:54:00,
2013-10-16 23:09:00,47.7,46.0,29.90,SW,232,2.0,5.0,95,0.00,,,0.00,weatherlink.com 1.10,2013-10-17 04:09:00,
2013-10-16 23:24:00,47.6,46.0,29.90,West,273,1.0,4.0,95,0.00,,,0.00,weatherlink.com 1.10,2013-10-17 04:24:00,
2013-10-16 23:39:00,47.5,47.0,29.90,West,277,3.0,4.0,96,0.01,,,0.01,weatherlink.com 1.10,2013-10-17 04:39:00,
2013-10-16 23:54:00,47.4,46.0,29.90,West,281,1.0,4.0,96,0.01,,,0.01,weatherlink.com 1.10,2013-10-17 04:54:00,